Time;durP1;ratioP1;P1;durP2;ratioP2;P2;SDS_P1;SDS_P2;PMS_P1;PMS_P2;Temp;Humidity;BMP_temperature;BMP_pressure;BME280_temperature;BME280_humidity;BME280_pressure;Samples;Min_cycle;Max_cycle;Signal;HPM_P1;HPM_P2
2021/06/05 00:01:33;;;;;;;52.47;40.42;;;20.90;75.00;;;;;;5071344;28;20052;-80
2021/06/05 00:03:59;;;;;;;52.50;40.75;;;20.60;76.70;;;;;;5071109;28;20023;-66
2021/06/05 00:06:25;;;;;;;56.65;40.78;;;20.30;77.90;;;;;;5071006;28;20564;-68
2021/06/05 00:08:51;;;;;;;60.20;43.95;;;19.90;78.80;;;;;;5069020;28;20037;-68
2021/06/05 00:11:18;;;;;;;58.70;42.95;;;19.80;80.30;;;;;;5068388;28;20052;-69
2021/06/05 00:13:46;;;;;;;61.10;42.08;;;19.70;81.30;;;;;;5066792;28;20031;-70
2021/06/05 00:16:16;;;;;;;58.60;41.50;;;19.60;81.70;;;;;;5068145;28;20078;-66
2021/06/05 00:18:42;;;;;;;55.88;42.20;;;19.50;82.40;;;;;;5068253;28;20089;-67
2021/06/05 00:21:08;;;;;;;57.22;39.67;;;19.40;82.60;;;;;;5065548;28;20023;-69
2021/06/05 00:23:34;;;;;;;49.30;36.63;;;19.40;82.70;;;;;;5067976;28;20403;-69
2021/06/05 00:25:59;;;;;;;50.67;37.22;;;19.30;82.50;;;;;;5070909;28;20055;-69
2021/06/05 00:28:25;;;;;;;45.70;35.03;;;19.30;83.10;;;;;;5078291;28;20023;-68
2021/06/05 00:30:51;;;;;;;43.13;33.00;;;19.30;82.80;;;;;;5077195;28;20029;-68
2021/06/05 00:33:16;;;;;;;41.30;31.17;;;19.30;83.00;;;;;;5085402;28;20032;-68
2021/06/05 00:35:42;;;;;;;39.70;32.05;;;19.30;82.90;;;;;;5072500;28;20048;-67
2021/06/05 00:38:07;;;;;;;41.03;31.38;;;19.20;82.70;;;;;;5083037;28;20360;-68
2021/06/05 00:40:38;;;;;;;42.45;32.08;;;19.20;82.80;;;;;;5077941;28;20536;-68
2021/06/05 00:43:04;;;;;;;42.40;31.55;;;19.20;82.70;;;;;;5075179;28;20055;-66
2021/06/05 00:45:32;;;;;;;33.25;26.55;;;19.20;82.90;;;;;;5085835;28;20067;-67
2021/06/05 00:47:57;;;;;;;33.85;28.30;;;19.20;82.10;;;;;;5074273;28;20027;-67
2021/06/05 00:50:24;;;;;;;41.50;29.75;;;19.30;83.10;;;;;;5080741;28;20013;-68
2021/06/05 00:52:49;;;;;;;41.83;32.47;;;19.20;82.10;;;;;;5080239;28;20020;-68
2021/06/05 00:55:16;;;;;;;37.92;29.75;;;19.10;82.80;;;;;;5072288;28;20108;-68
2021/06/05 00:57:42;;;;;;;39.20;30.33;;;19.10;82.90;;;;;;5086682;28;20044;-68
2021/06/05 01:00:30;;;;;;;37.05;27.60;;;19.10;83.10;;;;;;5079660;28;20020;-68
2021/06/05 01:02:57;;;;;;;40.97;30.23;;;19.20;82.90;;;;;;5080266;28;20083;-67
2021/06/05 01:05:23;;;;;;;41.65;31.55;;;19.20;82.90;;;;;;5090141;28;20117;-67
2021/06/05 01:07:49;;;;;;;45.83;34.50;;;19.20;83.40;;;;;;5093469;28;20073;-66
2021/06/05 01:10:24;;;;;;;51.42;36.95;;;19.20;83.90;;;;;;5075267;28;20020;-67
2021/06/05 01:13:21;;;;;;;53.55;37.47;;;19.10;84.10;;;;;;5075627;28;20028;-67
2021/06/05 01:16:01;;;;;;;47.08;36.22;;;19.10;84.10;;;;;;5077651;28;20078;-67
2021/06/05 01:18:57;;;;;;;47.85;35.80;;;19.10;84.40;;;;;;5092062;28;20024;-67
2021/06/05 01:21:45;;;;;;;51.13;38.20;;;19.10;83.90;;;;;;5092045;28;20551;-67
2021/06/05 01:24:47;;;;;;;46.45;35.53;;;19.10;84.40;;;;;;5091952;28;20394;-67
2021/06/05 01:27:24;;;;;;;41.15;31.80;;;19.10;84.10;;;;;;5090770;28;20032;-66
2021/06/05 01:29:54;;;;;;;39.25;30.02;;;19.10;83.60;;;;;;5075347;28;20497;-66
2021/06/05 01:32:20;;;;;;;39.27;30.27;;;19.00;82.20;;;;;;5091866;28;20440;-66
2021/06/05 01:34:47;;;;;;;44.50;31.05;;;19.00;82.80;;;;;;5091633;28;20027;-67
2021/06/05 01:37:13;;;;;;;42.88;31.50;;;19.00;83.20;;;;;;5091439;28;20040;-64
2021/06/05 01:39:40;;;;;;;46.03;33.92;;;19.00;83.30;;;;;;5091656;28;20111;-70
2021/06/05 01:42:09;;;;;;;46.05;35.15;;;19.00;84.20;;;;;;5074946;28;20016;-69
2021/06/05 01:44:35;;;;;;;45.13;34.05;;;19.00;84.00;;;;;;5075189;28;20063;-69
2021/06/05 01:47:00;;;;;;;43.85;35.13;;;19.00;84.40;;;;;;5091694;28;20052;-70
2021/06/05 01:49:26;;;;;;;48.97;37.80;;;19.00;84.90;;;;;;5092800;28;20024;-70
2021/06/05 01:52:23;;;;;;;52.00;37.88;;;18.90;85.20;;;;;;5092817;28;20048;-70
2021/06/05 01:54:58;;;;;;;45.95;33.90;;;18.80;84.70;;;;;;5092480;28;20071;-69
2021/06/05 01:57:27;;;;;;;51.13;36.72;;;18.70;84.60;;;;;;5075021;28;20028;-70
2021/06/05 01:59:53;;;;;;;52.00;35.20;;;18.60;84.90;;;;;;5074818;28;20028;-70
2021/06/05 02:02:19;;;;;;;49.22;35.50;;;18.50;85.50;;;;;;5092524;28;20020;-70
2021/06/05 02:04:45;;;;;;;51.50;36.83;;;18.50;85.60;;;;;;5092542;28;20070;-70
2021/06/05 02:07:11;;;;;;;46.45;34.20;;;18.50;86.00;;;;;;5092520;28;20042;-70
2021/06/05 02:09:36;;;;;;;46.78;34.42;;;18.50;86.10;;;;;;5073932;28;20484;-70
2021/06/05 02:12:14;;;;;;;40.78;31.65;;;18.50;85.80;;;;;;5092404;28;20024;-70
2021/06/05 02:14:49;;;;;;;39.40;28.85;;;18.50;85.00;;;;;;5091329;28;20035;-71
2021/06/05 02:17:15;;;;;;;36.72;27.15;;;18.50;84.70;;;;;;5091139;28;20123;-71
2021/06/05 02:19:42;;;;;;;39.35;28.15;;;18.50;84.10;;;;;;5092236;28;20103;-72
2021/06/05 02:22:12;;;;;;;36.65;27.65;;;18.40;83.90;;;;;;5074377;28;20024;-72
2021/06/05 02:24:46;;;;;;;36.53;28.55;;;18.50;84.20;;;;;;5090892;28;20020;-71
2021/06/05 02:27:16;;;;;;;39.17;28.35;;;18.50;84.00;;;;;;5074297;28;20024;-71
2021/06/05 02:29:42;;;;;;;41.50;30.20;;;18.40;84.20;;;;;;5090856;28;20409;-71
2021/06/05 02:32:09;;;;;;;41.13;30.15;;;18.40;84.40;;;;;;5091885;28;20383;-71
2021/06/05 02:34:34;;;;;;;39.30;30.20;;;18.50;84.90;;;;;;5090710;28;20024;-71
2021/06/05 02:37:02;;;;;;;38.60;30.20;;;18.40;84.80;;;;;;5090553;28;20050;-71
2021/06/05 02:39:28;;;;;;;44.70;32.92;;;18.50;84.60;;;;;;5073784;28;20486;-71
2021/06/05 02:41:53;;;;;;;41.97;30.92;;;18.40;85.10;;;;;;5073754;28;20024;-71
2021/06/05 02:44:25;;;;;;;46.50;33.03;;;18.30;85.50;;;;;;5090492;28;20027;-70
2021/06/05 02:46:51;;;;;;;47.33;34.38;;;18.20;85.80;;;;;;5090647;28;20028;-68
2021/06/05 02:49:19;;;;;;;46.97;34.47;;;18.20;86.30;;;;;;5090491;28;20422;-71
2021/06/05 02:51:54;;;;;;;52.53;35.70;;;18.30;86.80;;;;;;5091573;28;20082;-71
2021/06/05 02:54:21;;;;;;;55.25;36.63;;;18.20;86.20;;;;;;5091566;28;20024;-71
2021/06/05 02:56:46;;;;;;;55.88;36.92;;;18.20;87.00;;;;;;5090255;28;20027;-71
2021/06/05 02:59:12;;;;;;;51.10;37.17;;;18.20;86.90;;;;;;5091619;28;20020;-71
2021/06/05 03:01:38;;;;;;;52.75;37.95;;;18.00;86.60;;;;;;5091546;28;20016;-71
2021/06/05 03:04:03;;;;;;;53.00;37.60;;;18.00;87.00;;;;;;5091435;28;20024;-70
2021/06/05 03:06:30;;;;;;;55.05;37.72;;;18.00;87.90;;;;;;5091423;28;20119;-70
2021/06/05 03:08:57;;;;;;;52.47;38.78;;;18.00;87.70;;;;;;5091237;28;20027;-70
2021/06/05 03:11:23;;;;;;;53.50;38.40;;;17.90;87.70;;;;;;5091108;28;20024;-70
2021/06/05 03:13:49;;;;;;;56.78;39.60;;;17.90;88.20;;;;;;5091200;28;20032;-70
2021/06/05 03:16:14;;;;;;;53.60;38.78;;;17.90;89.10;;;;;;5090970;28;20081;-70
2021/06/05 03:18:40;;;;;;;51.42;37.70;;;18.00;88.80;;;;;;5091034;28;20427;-70
2021/06/05 03:21:08;;;;;;;55.97;39.67;;;18.10;88.20;;;;;;5090159;28;20050;-70
2021/06/05 03:23:34;;;;;;;58.58;39.20;;;18.10;87.90;;;;;;5090974;28;20020;-71
2021/06/05 03:25:59;;;;;;;57.42;41.42;;;18.10;88.20;;;;;;5090772;28;20543;-70
2021/06/05 03:28:26;;;;;;;64.10;42.90;;;18.10;87.20;;;;;;5090831;28;20028;-70
2021/06/05 03:30:52;;;;;;;60.95;42.28;;;18.10;87.00;;;;;;5090887;28;20032;-70
2021/06/05 03:33:18;;;;;;;64.15;44.13;;;18.10;87.60;;;;;;5090790;28;20386;-70
2021/06/05 03:35:44;;;;;;;77.30;45.20;;;18.10;87.90;;;;;;5090446;28;20039;-70
2021/06/05 03:38:09;;;;;;;61.95;42.63;;;18.00;87.70;;;;;;5089345;28;20026;-69
2021/06/05 03:40:35;;;;;;;68.30;45.63;;;18.10;87.80;;;;;;5090617;28;20104;-69
2021/06/05 03:43:01;;;;;;;70.90;45.55;;;18.10;87.60;;;;;;5090547;28;20493;-69
2021/06/05 03:45:27;;;;;;;75.30;47.08;;;18.10;87.80;;;;;;5090440;28;20012;-69
2021/06/05 03:47:54;;;;;;;72.43;43.90;;;18.10;87.60;;;;;;5090403;28;20031;-69
2021/06/05 03:50:22;;;;;;;80.57;46.50;;;18.10;87.90;;;;;;5090447;28;20028;-69
2021/06/05 03:52:48;;;;;;;77.05;49.08;;;18.20;87.50;;;;;;5090434;28;20027;-69
2021/06/05 03:55:14;;;;;;;75.15;47.00;;;18.20;87.50;;;;;;5090367;28;20032;-70
2021/06/05 03:57:39;;;;;;;71.88;46.88;;;18.20;87.40;;;;;;5090350;28;20028;-69
2021/06/05 04:00:13;;;;;;;85.28;49.72;;;18.30;87.50;;;;;;5090206;28;20157;-69
2021/06/05 04:02:39;;;;;;;88.78;52.05;;;18.30;87.40;;;;;;5090205;28;20020;-69
2021/06/05 04:05:05;;;;;;;77.75;49.60;;;18.30;87.50;;;;;;5090176;28;20069;-69
2021/06/05 04:07:31;;;;;;;82.93;50.80;;;18.30;87.40;;;;;;5090169;28;20109;-70
2021/06/05 04:09:56;;;;;;;87.35;51.53;;;18.40;87.30;;;;;;5090023;28;20070;-69
2021/06/05 04:12:22;;;;;;;78.50;49.38;;;18.40;87.40;;;;;;5089984;28;20023;-70
2021/06/05 04:14:48;;;;;;;81.28;50.03;;;18.40;87.20;;;;;;5089947;28;20409;-69
2021/06/05 04:17:13;;;;;;;81.03;48.03;;;18.40;87.30;;;;;;5089910;28;20724;-69
2021/06/05 04:19:39;;;;;;;77.07;48.85;;;18.40;87.30;;;;;;5090028;28;20077;-69
2021/06/05 04:22:06;;;;;;;84.93;50.03;;;18.40;87.60;;;;;;5089954;28;20111;-68
2021/06/05 04:24:33;;;;;;;80.22;49.05;;;18.40;87.70;;;;;;5089878;28;20030;-68
2021/06/05 04:26:58;;;;;;;76.50;47.75;;;18.50;87.50;;;;;;5089883;28;20376;-69
2021/06/05 04:29:24;;;;;;;80.55;47.53;;;18.50;87.10;;;;;;5089777;28;20035;-69
2021/06/05 04:31:49;;;;;;;73.20;47.17;;;18.50;87.10;;;;;;5089536;28;20028;-69
2021/06/05 04:34:15;;;;;;;78.18;49.40;;;18.60;86.90;;;;;;5089590;28;20028;-70
2021/06/05 04:36:40;;;;;;;75.80;47.92;;;18.50;87.10;;;;;;5089575;28;20040;-70
2021/06/05 04:39:06;;;;;;;76.72;46.83;;;18.60;86.80;;;;;;5089626;28;20024;-67
2021/06/05 04:41:31;;;;;;;75.47;47.03;;;18.60;86.80;;;;;;5089710;28;20119;-67
2021/06/05 04:43:57;;;;;;;84.50;47.65;;;18.60;86.80;;;;;;5088468;28;20059;-69
2021/06/05 04:46:23;;;;;;;73.35;44.40;;;18.60;86.80;;;;;;5089732;28;20024;-69
2021/06/05 04:48:48;;;;;;;65.90;43.67;;;18.70;86.40;;;;;;5089686;28;20411;-70
2021/06/05 04:51:15;;;;;;;69.18;44.05;;;18.70;86.00;;;;;;5089678;28;20042;-68
2021/06/05 04:53:40;;;;;;;65.95;43.22;;;18.70;86.30;;;;;;5089663;28;20106;-67
2021/06/05 04:56:06;;;;;;;73.30;43.97;;;18.70;85.80;;;;;;5089342;28;20493;-68
2021/06/05 04:58:32;;;;;;;66.28;43.90;;;18.70;86.30;;;;;;5089387;28;20432;-68
2021/06/05 05:00:57;;;;;;;61.53;40.00;;;18.70;86.30;;;;;;5089608;28;20028;-68
2021/06/05 05:03:24;;;;;;;65.00;42.63;;;18.80;86.40;;;;;;5089474;28;20051;-68
2021/06/05 05:05:51;;;;;;;60.67;41.28;;;18.90;86.00;;;;;;5089524;28;20390;-68
2021/06/05 05:08:17;;;;;;;65.43;41.97;;;19.00;85.20;;;;;;5089617;28;20027;-69
2021/06/05 05:10:44;;;;;;;67.75;42.95;;;19.00;85.30;;;;;;5089313;28;20024;-68
2021/06/05 05:13:11;;;;;;;65.75;42.47;;;19.00;84.60;;;;;;5089510;28;20371;-68
2021/06/05 05:15:37;;;;;;;62.35;41.33;;;19.00;85.00;;;;;;5089489;28;20071;-68
2021/06/05 05:18:02;;;;;;;64.35;39.50;;;19.10;84.50;;;;;;5089225;28;20690;-68
2021/06/05 05:20:31;;;;;;;63.38;40.75;;;19.00;84.60;;;;;;5089442;28;20020;-69
2021/06/05 05:22:57;;;;;;;66.57;41.88;;;19.00;84.60;;;;;;5089242;28;20028;-68
2021/06/05 05:25:22;;;;;;;58.08;39.83;;;19.10;84.50;;;;;;5089333;28;20043;-69
2021/06/05 05:27:48;;;;;;;59.58;38.30;;;19.20;84.40;;;;;;5089419;28;20031;-68
2021/06/05 05:30:18;;;;;;;57.03;38.42;;;19.20;83.60;;;;;;5089202;28;20012;-68
2021/06/05 05:32:44;;;;;;;51.75;35.33;;;19.20;83.00;;;;;;5089245;28;20032;-68
2021/06/05 05:35:10;;;;;;;51.92;34.45;;;19.20;83.30;;;;;;5089045;28;20035;-70
2021/06/05 05:37:36;;;;;;;49.75;34.00;;;19.20;82.80;;;;;;5088747;28;20044;-70
2021/06/05 05:40:04;;;;;;;45.70;33.17;;;19.30;81.80;;;;;;5088994;28;20028;-70
2021/06/05 05:42:29;;;;;;;42.80;31.17;;;19.30;81.90;;;;;;5089034;28;20535;-71
2021/06/05 05:44:55;;;;;;;45.08;32.17;;;19.20;80.50;;;;;;5092004;28;20028;-70
2021/06/05 05:47:20;;;;;;;49.33;35.03;;;19.10;80.80;;;;;;5092886;28;20471;-70
2021/06/05 05:49:46;;;;;;;51.10;35.33;;;19.20;81.50;;;;;;5092797;28;20032;-70
2021/06/05 05:52:11;;;;;;;47.55;32.45;;;19.30;81.40;;;;;;5092632;28;20073;-72
2021/06/05 05:54:37;;;;;;;47.28;31.17;;;19.30;81.50;;;;;;5092633;28;20032;-71
2021/06/05 05:57:03;;;;;;;50.25;34.45;;;19.40;81.10;;;;;;5082827;28;20115;-63
2021/06/05 05:59:28;;;;;;;49.03;34.25;;;19.50;80.80;;;;;;5072278;28;20029;-63
2021/06/05 06:01:54;;;;;;;48.83;32.70;;;19.70;80.80;;;;;;5072658;28;20041;-65
2021/06/05 06:04:20;;;;;;;48.60;33.35;;;19.60;79.50;;;;;;5071951;28;20536;-66
2021/06/05 06:06:45;;;;;;;38.80;29.30;;;19.50;80.60;;;;;;5071759;28;20073;-65
2021/06/05 06:09:11;;;;;;;46.38;31.20;;;19.50;80.10;;;;;;5071878;28;20391;-65
2021/06/05 06:11:36;;;;;;;40.75;27.75;;;19.50;80.30;;;;;;5071995;28;20519;-65
2021/06/05 06:14:02;;;;;;;46.72;30.77;;;19.60;80.30;;;;;;5071913;28;20032;-63
2021/06/05 06:16:29;;;;;;;49.80;31.48;;;19.60;80.00;;;;;;5072085;28;20046;-62
2021/06/05 06:18:54;;;;;;;41.45;29.58;;;19.60;79.80;;;;;;5069186;28;20485;-64
2021/06/05 06:21:20;;;;;;;41.95;30.65;;;19.60;80.20;;;;;;5070153;28;20108;-64
2021/06/05 06:23:46;;;;;;;43.05;29.45;;;19.60;80.60;;;;;;5070346;28;20040;-64
2021/06/05 06:26:16;;;;;;;46.70;31.38;;;19.60;80.10;;;;;;5069002;28;20029;-64
2021/06/05 06:28:42;;;;;;;45.35;31.70;;;19.60;80.50;;;;;;5069096;28;20020;-63
2021/06/05 06:31:07;;;;;;;42.38;30.17;;;19.60;80.80;;;;;;5070084;28;20478;-64
2021/06/05 06:33:33;;;;;;;45.42;30.70;;;19.60;80.80;;;;;;5070067;28;20021;-63
2021/06/05 06:35:59;;;;;;;40.70;29.45;;;19.60;80.60;;;;;;5068552;28;20131;-64
2021/06/05 06:38:27;;;;;;;45.78;29.55;;;19.60;81.00;;;;;;5070060;28;20020;-76
2021/06/05 06:40:53;;;;;;;46.15;30.02;;;19.50;80.50;;;;;;5053494;28;20032;-63
2021/06/05 06:43:22;;;;;;;42.88;29.23;;;19.40;80.90;;;;;;5071521;28;20025;-68
2021/06/05 06:45:47;;;;;;;47.38;31.55;;;19.40;81.10;;;;;;5071488;28;20030;-67
2021/06/05 06:48:13;;;;;;;47.17;31.45;;;19.30;81.20;;;;;;5070882;28;20032;-63
2021/06/05 06:50:38;;;;;;;46.97;31.15;;;19.20;81.90;;;;;;5071210;28;20021;-65
2021/06/05 06:53:04;;;;;;;49.35;30.70;;;19.20;81.90;;;;;;5071041;28;20463;-64
2021/06/05 06:55:29;;;;;;;51.63;31.15;;;19.20;82.00;;;;;;5069819;28;20479;-68
2021/06/05 06:57:55;;;;;;;51.10;32.42;;;19.20;82.00;;;;;;5069952;28;20064;-68
2021/06/05 07:00:30;;;;;;;51.15;33.97;;;19.20;82.10;;;;;;5069336;28;20028;-67
2021/06/05 07:02:56;;;;;;;52.42;33.10;;;19.20;82.20;;;;;;5067564;28;20021;-67
2021/06/05 07:05:22;;;;;;;52.10;33.33;;;19.10;81.90;;;;;;5069162;28;20032;-68
2021/06/05 07:07:47;;;;;;;50.22;32.40;;;19.30;81.60;;;;;;5070231;28;20036;-68
2021/06/05 07:10:14;;;;;;;47.28;31.42;;;19.30;80.90;;;;;;5070038;28;20028;-68
2021/06/05 07:12:39;;;;;;;49.83;31.63;;;19.40;80.70;;;;;;5069836;28;20052;-66
2021/06/05 07:15:05;;;;;;;50.47;32.45;;;19.40;79.80;;;;;;5068506;28;20056;-67
2021/06/05 07:17:31;;;;;;;48.33;30.92;;;19.40;80.00;;;;;;5069926;28;20036;-67
2021/06/05 07:19:56;;;;;;;46.50;31.90;;;19.50;78.70;;;;;;5070024;28;20352;-68
2021/06/05 07:22:22;;;;;;;45.28;31.90;;;19.60;79.10;;;;;;5070077;28;20024;-72
2021/06/05 07:24:47;;;;;;;46.63;33.05;;;19.60;78.40;;;;;;5069682;28;20099;-67
2021/06/05 07:27:13;;;;;;;48.30;33.35;;;19.70;78.40;;;;;;5069931;28;20103;-67
2021/06/05 07:29:38;;;;;;;46.08;32.63;;;19.70;78.80;;;;;;5069740;28;20470;-66
2021/06/05 07:32:05;;;;;;;44.83;31.80;;;19.80;78.30;;;;;;5069581;28;20020;-66
2021/06/05 07:34:30;;;;;;;48.80;32.22;;;19.70;78.10;;;;;;5069524;28;20098;-66
2021/06/05 07:37:01;;;;;;;51.55;33.33;;;19.70;78.20;;;;;;5069355;28;20507;-67
2021/06/05 07:39:27;;;;;;;47.60;32.67;;;19.70;78.40;;;;;;5068358;28;20029;-66
2021/06/05 07:41:53;;;;;;;52.50;35.05;;;19.60;78.80;;;;;;5069423;28;20021;-68
2021/06/05 07:44:19;;;;;;;55.63;35.28;;;19.60;79.00;;;;;;5069443;28;20036;-67
2021/06/05 07:46:51;;;;;;;52.85;34.17;;;19.50;78.90;;;;;;5069130;28;20025;-67
2021/06/05 07:49:17;;;;;;;47.78;32.22;;;19.50;79.20;;;;;;5069472;28;20032;-68
2021/06/05 07:51:45;;;;;;;50.58;33.60;;;19.50;80.00;;;;;;5069383;28;20079;-68
2021/06/05 07:54:10;;;;;;;56.72;34.95;;;19.60;79.50;;;;;;5069140;28;20021;-67
2021/06/05 07:56:36;;;;;;;51.70;34.17;;;19.70;78.80;;;;;;5069145;28;20111;-67
2021/06/05 07:59:01;;;;;;;56.17;34.05;;;19.70;78.90;;;;;;5069180;28;20020;-69
2021/06/05 08:01:27;;;;;;;52.08;34.30;;;19.70;78.70;;;;;;5068968;28;20394;-71
2021/06/05 08:03:53;;;;;;;53.83;35.22;;;19.70;78.30;;;;;;5067844;28;20379;-68
2021/06/05 08:06:18;;;;;;;56.13;34.65;;;19.70;78.40;;;;;;5068201;28;20039;-68
2021/06/05 08:08:45;;;;;;;53.10;34.35;;;19.70;79.00;;;;;;5068992;28;20032;-69
2021/06/05 08:11:12;;;;;;;55.00;35.53;;;19.90;78.50;;;;;;5067791;28;20107;-68
2021/06/05 08:13:37;;;;;;;54.85;35.50;;;20.10;77.50;;;;;;5069076;28;20031;-67
2021/06/05 08:16:03;;;;;;;51.28;35.25;;;20.20;76.90;;;;;;5069015;28;20029;-68
2021/06/05 08:18:28;;;;;;;55.15;33.88;;;20.40;76.00;;;;;;5069031;28;20490;-69
2021/06/05 08:20:56;;;;;;;49.15;32.20;;;20.60;75.10;;;;;;5068743;28;20012;-67
2021/06/05 08:23:23;;;;;;;51.13;32.28;;;20.60;74.80;;;;;;5068439;28;20028;-69
2021/06/05 08:25:49;;;;;;;48.92;31.23;;;20.80;73.80;;;;;;5069020;28;20024;-68
2021/06/05 08:28:15;;;;;;;57.08;33.92;;;20.90;72.70;;;;;;5068879;28;20089;-67
2021/06/05 08:30:43;;;;;;;48.63;32.50;;;20.70;73.20;;;;;;5069047;28;20409;-71
2021/06/05 08:33:09;;;;;;;51.25;34.80;;;20.60;73.20;;;;;;5068869;28;20423;-66
2021/06/05 08:35:35;;;;;;;52.40;34.92;;;20.70;73.60;;;;;;5068363;28;20017;-67
2021/06/05 08:38:02;;;;;;;53.42;34.38;;;20.60;73.80;;;;;;5069903;28;20028;-69
2021/06/05 08:40:43;;;;;;;51.90;35.25;;;20.60;74.30;;;;;;5074259;28;20536;-69
2021/06/05 08:43:10;;;;;;;53.97;34.40;;;20.60;73.40;;;;;;5076898;28;20029;-68
2021/06/05 08:45:36;;;;;;;51.60;33.70;;;20.70;73.60;;;;;;5084105;28;20107;-70
2021/06/05 08:48:03;;;;;;;53.60;35.45;;;20.80;73.50;;;;;;5071477;28;20139;-70
2021/06/05 08:50:30;;;;;;;49.60;34.15;;;20.90;73.60;;;;;;5077948;28;20761;-69
2021/06/05 08:53:14;;;;;;;59.60;37.60;;;21.00;73.60;;;;;;5072777;28;20028;-67
2021/06/05 08:55:47;;;;;;;61.17;35.28;;;21.10;72.50;;;;;;5056045;28;20387;-68
2021/06/05 08:58:39;;;;;;;55.63;36.08;;;21.20;72.70;;;;;;5080568;28;20027;-68
2021/06/05 09:01:12;;;;;;;56.58;37.10;;;21.30;72.40;;;;;;5059577;28;20023;-69
2021/06/05 09:03:38;;;;;;;54.00;36.60;;;21.30;72.30;;;;;;5068536;28;20021;-70
2021/06/05 09:06:33;;;;;;;56.17;38.60;;;21.60;71.70;;;;;;5084857;28;20024;-69
2021/06/05 09:09:00;;;;;;;53.58;36.50;;;21.80;71.30;;;;;;5069093;28;20031;-71
2021/06/05 09:11:25;;;;;;;53.08;36.35;;;22.00;69.50;;;;;;5073555;28;20025;-71
2021/06/05 09:13:52;;;;;;;58.88;37.75;;;22.20;68.90;;;;;;5085284;28;20467;-70
2021/06/05 09:16:23;;;;;;;51.58;35.03;;;22.30;69.00;;;;;;5072876;28;20024;-70
2021/06/05 09:18:52;;;;;;;;;;;22.50;68.30;;;;;;5081698;28;20071;-68
2021/06/05 09:21:29;;;;;;;47.25;33.10;;;22.60;67.60;;;;;;5085459;28;19907;-69
2021/06/05 09:24:11;;;;;;;49.42;35.35;;;22.70;67.40;;;;;;5077345;28;20028;-71
2021/06/05 09:26:37;;;;;;;48.45;35.20;;;22.80;67.10;;;;;;5076466;28;20025;-70
2021/06/05 09:29:06;;;;;;;51.78;35.03;;;22.80;66.40;;;;;;5071257;28;20021;-64
2021/06/05 09:31:32;;;;;;;47.38;35.45;;;23.00;66.60;;;;;;5082152;28;20028;-68
2021/06/05 09:33:57;;;;;;;50.05;34.88;;;23.20;65.90;;;;;;5078410;28;20035;-72
2021/06/05 09:36:33;;;;;;;51.47;36.17;;;23.10;65.60;;;;;;5080885;28;20036;-71
2021/06/05 09:39:27;;;;;;;51.40;34.38;;;23.30;65.50;;;;;;5074764;28;20115;-69
2021/06/05 09:41:52;;;;;;;50.13;33.92;;;23.40;64.90;;;;;;5057312;28;20115;-70
2021/06/05 09:44:21;;;;;;;51.03;35.58;;;23.50;65.00;;;;;;5071244;28;20099;-70
2021/06/05 09:46:58;;;;;;;49.28;34.30;;;23.20;64.60;;;;;;5074250;28;20044;-70
2021/06/05 09:49:38;;;;;;;50.22;34.40;;;23.10;65.30;;;;;;5072165;28;20032;-71
2021/06/05 09:52:14;;;;;;;49.42;33.92;;;22.90;65.40;;;;;;5072316;28;20521;-70
2021/06/05 09:54:45;;;;;;;51.15;35.58;;;22.90;66.40;;;;;;5070740;28;20033;-72
2021/06/05 09:57:24;;;;;;;46.47;33.37;;;22.70;66.20;;;;;;5072317;28;20078;-79
2021/06/05 10:00:16;;;;;;;47.03;32.83;;;22.70;66.60;;;;;;5069453;28;20475;-75
2021/06/05 10:02:46;;;;;;;47.28;33.00;;;22.80;66.60;;;;;;5071871;28;20025;-75
2021/06/05 10:05:38;;;;;;;48.67;34.80;;;22.60;66.40;;;;;;5070055;28;20390;-74
2021/06/05 10:08:40;;;;;;;46.70;32.63;;;22.80;66.60;;;;;;5054292;28;20021;-72
2021/06/05 10:11:29;;;;;;;51.08;34.70;;;22.70;66.50;;;;;;5070001;28;20020;-75
2021/06/05 10:14:02;;;;;;;48.80;34.08;;;22.80;66.70;;;;;;5053629;28;20112;-70
2021/06/05 10:16:27;;;;;;;50.67;34.85;;;22.80;66.40;;;;;;5069788;28;20030;-70
2021/06/05 10:18:55;;;;;;;47.42;32.55;;;22.60;66.90;;;;;;5069097;28;20597;-71
2021/06/05 10:21:36;;;;;;;54.15;35.25;;;22.60;67.70;;;;;;5070050;28;20032;-71
2021/06/05 10:24:13;;;;;;;56.20;36.83;;;22.60;68.60;;;;;;5069834;28;20032;-69
2021/06/05 10:26:41;;;;;;;57.25;36.85;;;22.70;68.70;;;;;;5069996;28;20063;-69
2021/06/05 10:29:25;;;;;;;64.65;38.67;;;22.60;68.10;;;;;;5070846;28;20120;-70
2021/06/05 10:31:51;;;;;;;67.53;42.88;;;22.60;67.90;;;;;;5070782;28;20020;-69
2021/06/05 10:34:27;;;;;;;69.25;41.28;;;22.70;67.50;;;;;;5070856;28;20214;-70
2021/06/05 10:36:53;;;;;;;72.57;44.33;;;22.90;67.10;;;;;;5037296;28;20040;-70
2021/06/05 10:39:24;;;;;;;67.47;42.55;;;23.10;66.10;;;;;;5052763;28;20028;-69
2021/06/05 10:41:56;;;;;;;72.47;44.70;;;23.50;65.50;;;;;;5070909;28;20047;-70
2021/06/05 10:44:23;;;;;;;74.90;45.85;;;23.90;63.10;;;;;;5069576;28;20066;-69
2021/06/05 10:46:52;;;;;;;72.38;45.60;;;24.20;62.80;;;;;;5070663;28;20214;-70
2021/06/05 10:49:20;;;;;;;79.47;48.67;;;24.30;61.70;;;;;;5053082;28;20069;-69
2021/06/05 10:51:48;;;;;;;75.25;47.88;;;24.20;61.20;;;;;;5070626;28;20035;-69
2021/06/05 10:54:19;;;;;;;79.05;49.65;;;24.10;62.00;;;;;;5052599;28;20029;-68
2021/06/05 10:56:57;;;;;;;84.03;50.55;;;23.60;63.30;;;;;;5069198;28;20111;-70
2021/06/05 10:59:37;;;;;;;89.55;51.70;;;23.60;64.40;;;;;;5070445;28;20028;-68
2021/06/05 11:02:03;;;;;;;88.78;52.03;;;23.40;64.90;;;;;;5070049;28;20031;-69
2021/06/05 11:04:31;;;;;;;91.55;53.85;;;23.30;65.90;;;;;;5068890;28;20111;-72
2021/06/05 11:07:03;;;;;;;54.88;31.80;;;23.20;66.10;;;;;;5070428;28;20085;-72
2021/06/05 11:09:30;;;;;;;87.00;56.13;;;23.50;65.00;;;;;;5085534;28;20035;-72
2021/06/05 11:12:25;;;;;;;73.90;48.35;;;23.90;63.70;;;;;;5073309;28;20029;-71
2021/06/05 11:14:52;;;;;;;94.57;56.30;;;24.20;62.60;;;;;;5081560;28;20028;-71
2021/06/05 11:17:36;;;;;;;96.63;57.40;;;24.40;62.90;;;;;;5080716;28;20454;-70
2021/06/05 11:20:02;;;;;;;95.47;58.10;;;23.70;64.40;;;;;;5073104;28;20371;-70
2021/06/05 11:22:48;;;;;;;97.70;60.30;;;23.30;65.90;;;;;;5084614;28;20023;-70
2021/06/05 11:25:16;;;;;;;94.82;56.25;;;23.60;65.80;;;;;;5080330;28;20173;-70
2021/06/05 11:27:42;;;;;;;95.78;57.00;;;23.80;64.80;;;;;;5074276;28;20380;-70
2021/06/05 11:30:22;;;;;;;96.97;58.20;;;23.90;63.60;;;;;;5086112;28;20046;-71
2021/06/05 11:32:54;;;;;;;93.03;55.50;;;23.90;63.20;;;;;;5077607;28;20070;-70
2021/06/05 11:35:44;;;;;;;102.60;61.80;;;24.00;63.70;;;;;;5076864;28;20090;-71
2021/06/05 11:38:18;;;;;;;100.60;59.88;;;23.80;63.20;;;;;;5085786;28;20031;-71
2021/06/05 11:40:47;;;;;;;101.50;61.63;;;23.60;63.50;;;;;;5076675;28;20024;-71
2021/06/05 11:43:28;;;;;;;93.30;55.60;;;23.30;63.80;;;;;;5085034;28;20444;-69
2021/06/05 11:45:58;;;;;;;103.35;59.47;;;23.40;65.50;;;;;;5072693;28;20028;-67
2021/06/05 11:48:44;;;;;;;150.40;60.63;;;23.40;65.50;;;;;;5074376;28;20031;-66
2021/06/05 11:51:22;;;;;;;109.75;68.72;;;23.10;66.00;;;;;;5078151;28;20259;-67
2021/06/05 11:53:48;;;;;;;119.22;69.28;;;22.70;67.00;;;;;;5085421;28;20028;-67
2021/06/05 11:56:14;;;;;;;145.05;72.53;;;22.40;68.60;;;;;;5072464;28;20027;-67
2021/06/05 11:58:40;;;;;;;146.20;70.93;;;22.10;69.30;;;;;;5080861;28;20020;-68
2021/06/05 12:01:12;;;;;;;132.40;73.95;;;21.80;69.90;;;;;;5076844;28;20035;-68
2021/06/05 12:03:43;;;;;;;157.80;81.30;;;21.60;71.10;;;;;;5084412;28;20024;-67
2021/06/05 12:06:17;;;;;;;172.57;86.97;;;21.40;72.80;;;;;;5071250;28;20025;-68
2021/06/05 12:08:44;;;;;;;187.80;90.63;;;21.30;73.30;;;;;;5081631;28;20056;-68
2021/06/05 12:11:23;;;;;;;191.65;94.32;;;21.20;73.70;;;;;;5079988;28;20027;-67
2021/06/05 12:13:49;;;;;;;196.57;93.93;;;21.10;74.60;;;;;;5071269;28;20021;-66
2021/06/05 12:16:18;;;;;;;166.50;84.35;;;21.30;73.80;;;;;;5084247;28;20383;-68
2021/06/05 12:18:46;;;;;;;166.35;85.65;;;21.40;73.20;;;;;;5076356;28;20390;-66
2021/06/05 12:21:26;;;;;;;160.65;82.45;;;21.50;72.50;;;;;;5076291;28;20096;-67
2021/06/05 12:23:52;;;;;;;159.32;84.07;;;21.60;72.00;;;;;;5083916;28;20062;-67
2021/06/05 12:26:23;;;;;;;158.82;80.57;;;21.70;72.60;;;;;;5072522;28;20047;-67
2021/06/05 12:29:09;;;;;;;147.63;78.90;;;21.90;71.80;;;;;;5080760;28;20487;-66
2021/06/05 12:31:40;;;;;;;143.15;76.90;;;21.90;71.80;;;;;;5083622;28;20077;-65
2021/06/05 12:34:08;;;;;;;148.07;78.25;;;21.50;72.10;;;;;;5072091;28;20033;-65
2021/06/05 12:36:41;;;;;;;142.38;79.28;;;21.20;72.90;;;;;;5081174;28;20044;-67